Terminal Aerodrome Forecast
Issued by NWS Mt. Holly, NJ

Home | Current Version | Previous Version | Text Only | Print | Product List | Glossary On
Versions: 1 2 3 4 5 6 7 8 9 10 11 12 13 14 15 16 17 18 19 20 21 22 23 24 25 26 27 28 29 30 31 32 33 34
000
FTUS41 KPHI 180300 AAA
TAFABE
TAF AMD
KABE 180342Z 1804/1824 11004KT P6SM FEW022
      TEMPO 1804/1806 BKN022
     FM180600 VRB03KT P6SM OVC020
     FM181500 VRB03KT P6SM SCT025 BKN250
     FM181800 21006KT P6SM OVC200=

USA.gov is the U.S. government's official web portal to all federal, state and local government web resources and services.